Map

Track Data

SID SEASON NUMBER BASIN SUBBASIN NAME ISO_TIME NATURE LAT LON WMO_WIND WMO_PRES WMO_AGENCY TRACK_TYPE DIST2LAND LANDFALL IFLAG USA_AGENCY USA_ATCF_ID USA_LAT USA_LON USA_RECORD USA_STATUS USA_WIND USA_PRES USA_SSHS USA_R34_NE USA_R34_SE USA_R34_SW USA_R34_NW USA_R50_NE USA_R50_SE USA_R50_SW USA_R50_NW USA_R64_NE USA_R64_SE USA_R64_SW USA_R64_NW USA_POCI USA_ROCI USA_RMW USA_EYE TOKYO_LAT TOKYO_LON TOKYO_GRADE TOKYO_WIND TOKYO_PRES TOKYO_R50_DIR TOKYO_R50_LONG TOKYO_R50_SHORT TOKYO_R30_DIR TOKYO_R30_LONG TOKYO_R30_SHORT TOKYO_LAND CMA_LAT CMA_LON CMA_CAT CMA_WIND CMA_PRES HKO_LAT HKO_LON HKO_CAT HKO_WIND HKO_PRES NEWDELHI_LAT NEWDELHI_LON NEWDELHI_GRADE NEWDELHI_WIND NEWDELHI_PRES NEWDELHI_CI NEWDELHI_DP NEWDELHI_POCI REUNION_LAT REUNION_LON REUNION_TYPE REUNION_WIND REUNION_PRES REUNION_TNUM REUNION_CI REUNION_RMW REUNION_R34_NE REUNION_R34_SE REUNION_R34_SW REUNION_R34_NW REUNION_R50_NE REUNION_R50_SE REUNION_R50_SW REUNION_R50_NW REUNION_R64_NE REUNION_R64_SE REUNION_R64_SW REUNION_R64_NW BOM_LAT BOM_LON BOM_TYPE BOM_WIND BOM_PRES BOM_TNUM BOM_CI BOM_RMW BOM_R34_NE BOM_R34_SE BOM_R34_SW BOM_R34_NW BOM_R50_NE BOM_R50_SE BOM_R50_SW BOM_R50_NW BOM_R64_NE BOM_R64_SE BOM_R64_SW BOM_R64_NW BOM_ROCI BOM_POCI BOM_EYE BOM_POS_METHOD BOM_PRES_METHOD NADI_LAT NADI_LON NADI_CAT NADI_WIND NADI_PRES WELLINGTON_LAT WELLINGTON_LON WELLINGTON_WIND WELLINGTON_PRES DS824_LAT DS824_LON DS824_STAGE DS824_WIND DS824_PRES TD9636_LAT TD9636_LON TD9636_STAGE TD9636_WIND TD9636_PRES TD9635_LAT TD9635_LON TD9635_WIND TD9635_PRES TD9635_ROCI NEUMANN_LAT NEUMANN_LON NEUMANN_CLASS NEUMANN_WIND NEUMANN_PRES MLC_LAT MLC_LON MLC_CLASS MLC_WIND MLC_PRES USA_GUST BOM_GUST BOM_GUST_PER REUNION_GUST REUNION_GUST_PER USA_SEAHGT USA_SEARAD_NE USA_SEARAD_SE USA_SEARAD_SW USA_SEARAD_NW STORM_SPEED STORM_DIR
1988220N25140 1988 50 WP MM NOT_NAMED 1988-08-06 18:00:00 TS 24.5000 139.500 main 1056 1056 __O___________ -1 24.5000 139.500 0 17 1008 4 222
1988220N25140 1988 50 WP MM NOT_NAMED 1988-08-06 21:00:00 TS 24.3350 139.340 main 1071 1071 __P___________ -1 24.3350 139.340 0 17 1007 4 222
1988220N25140 1988 50 WP MM NOT_NAMED 1988-08-07 00:00:00 TS 24.2000 139.200 main 1078 1075 __O___________ -1 24.2000 139.200 0 17 1006 3 224
1988220N25140 1988 50 WP MM NOT_NAMED 1988-08-07 03:00:00 TS 24.1075 139.093 main 1086 1083 __P___________ -1 24.1075 139.093 0 17 1006 3 222
1988220N25140 1988 50 WP MM NOT_NAMED 1988-08-07 06:00:00 TS 24.0000 139.000 main 1094 1094 __O___________ -1 24.0000 139.000 0 17 1006 3 209
1988220N25140 1988 50 WP MM NOT_NAMED 1988-08-07 09:00:00 TS 23.8075 138.915 main 1113 1113 __P___________ -1 23.8075 138.915 0 17 1006 4 204
1988220N25140 1988 50 WP MM NOT_NAMED 1988-08-07 12:00:00 TS 23.6000 138.800 main 1132 1132 __O___________ -1 23.6000 138.800 0 17 1006 5 214
1988220N25140 1988 50 WP MM NOT_NAMED 1988-08-07 15:00:00 TS 23.4050 138.622 main 1140 1137 __P___________ -1 23.4050 138.622 0 18 1006 5 231
1988220N25140 1988 50 WP MM NOT_NAMED 1988-08-07 18:00:00 TS 23.3000 138.400 main 1137 1125 __O___________ -1 23.3000 138.400 0 19 1006 4 261
1988220N25140 1988 50 WP MM NOT_NAMED 1988-08-07 21:00:00 TS 23.3400 138.150 main 1125 1089 __P___________ -1 23.3400 138.150 0 19 1005 5 293
1988220N25140 1988 50 WP MM NOT_NAMED 1988-08-08 00:00:00 TS 23.5000 137.900 main 1089 1059 __O___________ -1 23.5000 137.900 0 19 1004 6 311
1988220N25140 1988 50 WP MM NOT_NAMED 1988-08-08 03:00:00 TS 23.7125 137.685 main 1059 1020 __P___________ -1 23.7125 137.685 0 21 1002 6 324
1988220N25140 1988 50 WP MM NOT_NAMED 1988-08-08 06:00:00 TS 24.0000 137.500 main 1020 987 __O___________ -1 24.0000 137.500 1 23 1001 7 334
1988220N25140 1988 50 WP MM NOT_NAMED 1988-08-08 09:00:00 TS 24.3499 137.350 main 981 939 __P___________ -1 24.3499 137.350 1 23 1001 8 339
1988220N25140 1988 50 WP MM NOT_NAMED 1988-08-08 12:00:00 TS 24.7000 137.200 main 939 909 __O___________ -1 24.7000 137.200 1 23 1001 7 332
1988220N25140 1988 50 WP MM NOT_NAMED 1988-08-08 15:00:00 TS 24.9425 137.007 main 909 870 __P___________ -1 24.9425 137.007 1 26 1001 6 324
1988220N25140 1988 50 WP MM NOT_NAMED 1988-08-08 18:00:00 TS 25.2000 136.800 main 870 831 __O___________ -1 25.2000 136.800 1 29 1001 7 326
1988220N25140 1988 50 WP MM NOT_NAMED 1988-08-08 21:00:00 TS 25.5025 136.592 main 831 774 __P___________ -1 25.5025 136.592 1 29 1000 9 336
1988220N25140 1988 50 WP MM NOT_NAMED 1988-08-09 00:00:00 TS 26.0000 136.400 main 774 691 __O___________ -1 26.0000 136.400 1 29 1000 15 349
1988220N25140 1988 50 WP MM NOT_NAMED 1988-08-09 03:00:00 TS 26.9824 136.265 main 683 605 __P___________ -1 26.9824 136.265 1 29 999 18 351
1988220N25140 1988 50 WP MM NOT_NAMED 1988-08-09 06:00:00 TS 27.8000 136.100 main 605 584 __O___________ -1 27.8000 136.100 1 29 998 9 332
1988220N25140 1988 50 WP MM NOT_NAMED 1988-08-09 09:00:00 TS 27.7476 135.806 main 592 585 __P___________ -1 27.7476 135.806 1 29 998 6 240
1988220N25140 1988 50 WP MM NOT_NAMED 1988-08-09 12:00:00 TS 27.5000 135.500 main 588 558 __O___________ -1 27.5000 135.500 1 29 998 5 263
1988220N25140 1988 50 WP MM NOT_NAMED 1988-08-09 15:00:00 TS 27.6900 135.263 main 558 520 __P___________ -1 27.6900 135.263 1 29 998 6 325
1988220N25140 1988 50 WP MM NOT_NAMED 1988-08-09 18:00:00 TS 28.0000 135.100 main 520 504 __O___________ -1 28.0000 135.100 1 29 998 5 344
1988220N25140 1988 50 WP MM NOT_NAMED 1988-08-09 21:00:00 TS 28.2122 135.094 main 504 473 __P___________ -1 28.2122 135.094 1 29 998 5 350
1988220N25140 1988 50 WP MM NOT_NAMED 1988-08-10 00:00:00 TS 28.5000 135.000 main 473 414 __O___________ -1 28.5000 135.000 1 29 998 9 327
1988220N25140 1988 50 WP MM NOT_NAMED 1988-08-10 03:00:00 TS 28.9631 134.539 main 400 326 __P___________ -1 28.9631 134.539 1 29 998 13 319
1988220N25140 1988 50 WP MM NOT_NAMED 1988-08-10 06:00:00 TS 29.5000 134.000 main 326 269 __O___________ -1 29.5000 134.000 1 29 998 13 325
1988220N25140 1988 50 WP MM NOT_NAMED 1988-08-10 09:00:00 TS 30.0296 133.677 main 269 215 __P___________ -1 30.0296 133.677 1 29 999 11 333
1988220N25140 1988 50 WP MM NOT_NAMED 1988-08-10 12:00:00 TS 30.5000 133.400 main 215 174 __O___________ -1 30.5000 133.400 1 29 1000 10 329
1988220N25140 1988 50 WP MM NOT_NAMED 1988-08-10 15:00:00 TS 30.8596 133.095 main 170 127 __P___________ -1 30.8596 133.095 1 29 1000 9 315
1988220N25140 1988 50 WP MM NOT_NAMED 1988-08-10 18:00:00 TS 31.1000 132.700 main 127 67 __O___________ -1 31.1000 132.700 1 29 1000 9 296
1988220N25140 1988 50 WP MM NOT_NAMED 1988-08-10 21:00:00 TS 31.2681 132.100 main 67 14 __P___________ -1 31.2681 132.100 1 29 1000 10 281
1988220N25140 1988 50 WP MM NOT_NAMED 1988-08-11 00:00:00 TS 31.3000 131.500 main 14 9 __O___________ -1 31.3000 131.500 1 29 1000 8 265
1988220N25140 1988 50 WP MM NOT_NAMED 1988-08-11 03:00:00 TS 31.1945 131.120 main 11 9 __P___________ -1 31.1945 131.120 1 29 1000 7 243
1988220N25140 1988 50 WP MM NOT_NAMED 1988-08-11 06:00:00 TS 31.0000 130.800 main 9 0 __O___________ -1 31.0000 130.800 1 29 1000 7 235
1988220N25140 1988 50 WP MM NOT_NAMED 1988-08-11 09:00:00 TS 30.7774 130.415 main 36 36 __P___________ -1 30.7774 130.415 1 29 1000 8 240
1988220N25140 1988 50 WP MM NOT_NAMED 1988-08-11 12:00:00 TS 30.6000 130.000 main 69 69 __O___________ -1 30.6000 130.000 1 29 1000 8 253
1988220N25140 1988 50 WP MM NOT_NAMED 1988-08-11 15:00:00 TS 30.5402 129.520 main 102 102 __P___________ -1 30.5402 129.520 1 29 1000 8 270
1988220N25140 1988 50 WP MM NOT_NAMED 1988-08-11 18:00:00 TS 30.6000 129.100 main 124 124 __O___________ -1 30.6000 129.100 1 29 1000 6 294
1988220N25140 1988 50 WP MM NOT_NAMED 1988-08-11 21:00:00 TS 30.7998 128.833 main 140 137 __P___________ -1 30.7998 128.833 1 29 1000 5 319
1988220N25140 1988 50 WP MM NOT_NAMED 1988-08-12 00:00:00 TS 31.0000 128.700 main 144 144 __O___________ -1 31.0000 128.700 1 29 1000 2 332
1988220N25140 1988 50 WP MM NOT_NAMED 1988-08-12 03:00:00 TS 31.0149 128.700 main 144 144 __P___________ -1 31.0149 128.700 1 29 999 0 0
1988220N25140 1988 50 WP MM NOT_NAMED 1988-08-12 06:00:00 TS 31.0000 128.700 main 144 144 __O___________ -1 31.0000 128.700 1 29 999 2 282
1988220N25140 1988 50 WP MM NOT_NAMED 1988-08-12 09:00:00 TS 31.0552 128.478 main 161 161 __P___________ -1 31.0552 128.478 1 26 999 4 300
1988220N25140 1988 50 WP MM NOT_NAMED 1988-08-12 12:00:00 TS 31.2000 128.300 main 180 180 __O___________ -1 31.2000 128.300 1 23 1000 4 346
1988220N25140 1988 50 WP MM NOT_NAMED 1988-08-12 15:00:00 TS 31.4847 128.352 main 172 136 __P___________ -1 31.4847 128.352 1 21 1001 7 23
1988220N25140 1988 50 WP MM NOT_NAMED 1988-08-12 18:00:00 TS 31.8000 128.600 main 136 93 __O___________ -1 31.8000 128.600 0 19 1002 8 46
1988220N25140 1988 50 WP MM NOT_NAMED 1988-08-12 21:00:00 TS 32.0306 129.007 main 93 48 __P___________ -1 32.0306 129.007 0 19 1002 9 62
1988220N25140 1988 50 WP MM NOT_NAMED 1988-08-13 00:00:00 TS 32.2000 129.500 main 48 __O___________ -1 32.2000 129.500 0 19 1002 9 68

Digital Typhoon Data and Search

About IBTrACS Database

This database is a web-friendly format of International Best Track Archive for Climate Stewardship (IBTrACS), a global best track data archive curated by NOAA dating back to 1842.

Updated: 2021-10-08